sensor_id;sensor_type;location;lat;lon;timestamp;pressure;altitude;pressure_sealevel;temperature;humidity
32251;BME280;41295;48.518;9.206;2023-01-05T00:01:38;97723.41;;;10.69;73.92
32251;BME280;41295;48.518;9.206;2023-01-05T00:03:42;97720.28;;;10.57;74.38
32251;BME280;41295;48.518;9.206;2023-01-05T00:05:44;97714.75;;;10.67;73.65
32251;BME280;41295;48.518;9.206;2023-01-05T00:07:47;97721.44;;;10.76;73.16
32251;BME280;41295;48.518;9.206;2023-01-05T00:09:50;97716.72;;;10.89;72.94
32251;BME280;41295;48.518;9.206;2023-01-05T00:11:52;97710.56;;;10.91;72.48
32251;BME280;41295;48.518;9.206;2023-01-05T00:14:14;97698.34;;;10.92;72.61
32251;BME280;41295;48.518;9.206;2023-01-05T00:16:34;97706.56;;;10.79;73.18
32251;BME280;41295;48.518;9.206;2023-01-05T00:18:57;97701.22;;;10.84;73.18
32251;BME280;41295;48.518;9.206;2023-01-05T00:21:17;97691.72;;;10.81;73.17
32251;BME280;41295;48.518;9.206;2023-01-05T00:23:38;97691.53;;;10.88;72.72
32251;BME280;41295;48.518;9.206;2023-01-05T00:25:40;97706.47;;;10.82;73.06
32251;BME280;41295;48.518;9.206;2023-01-05T00:27:45;97691.59;;;10.85;73.35
32251;BME280;41295;48.518;9.206;2023-01-05T00:29:48;97674.03;;;10.91;72.80
32251;BME280;41295;48.518;9.206;2023-01-05T00:31:51;97683.03;;;11.08;72.29
32251;BME280;41295;48.518;9.206;2023-01-05T00:33:55;97666.72;;;11.01;72.32
32251;BME280;41295;48.518;9.206;2023-01-05T00:35:57;97667.25;;;10.86;72.56
32251;BME280;41295;48.518;9.206;2023-01-05T00:38:00;97665.53;;;10.85;72.97
32251;BME280;41295;48.518;9.206;2023-01-05T00:40:03;97656.06;;;10.82;73.16
32251;BME280;41295;48.518;9.206;2023-01-05T00:42:06;97687.78;;;10.97;72.23
32251;BME280;41295;48.518;9.206;2023-01-05T00:44:08;97676.63;;;10.91;72.96
32251;BME280;41295;48.518;9.206;2023-01-05T00:46:11;97676.06;;;11.09;72.60
32251;BME280;41295;48.518;9.206;2023-01-05T00:48:14;97684.66;;;11.12;72.81
32251;BME280;41295;48.518;9.206;2023-01-05T00:50:18;97692.47;;;11.12;73.76
32251;BME280;41295;48.518;9.206;2023-01-05T00:52:21;97691.09;;;11.02;74.52
32251;BME280;41295;48.518;9.206;2023-01-05T00:54:24;97690.78;;;11.11;75.04
32251;BME280;41295;48.518;9.206;2023-01-05T00:56:26;97680.84;;;10.95;75.92
32251;BME280;41295;48.518;9.206;2023-01-05T00:58:29;97690.31;;;10.98;76.44
32251;BME280;41295;48.518;9.206;2023-01-05T01:00:32;97683.66;;;10.89;76.37
32251;BME280;41295;48.518;9.206;2023-01-05T01:02:34;97683.66;;;10.89;76.17
32251;BME280;41295;48.518;9.206;2023-01-05T01:04:37;97680.22;;;10.87;76.24
32251;BME280;41295;48.518;9.206;2023-01-05T01:06:41;97681.19;;;10.85;76.43
32251;BME280;41295;48.518;9.206;2023-01-05T01:08:44;97678.78;;;10.78;77.16
32251;BME280;41295;48.518;9.206;2023-01-05T01:10:46;97679.63;;;10.79;77.55
32251;BME280;41295;48.518;9.206;2023-01-05T01:12:51;97671.00;;;10.77;77.54
32251;BME280;41295;48.518;9.206;2023-01-05T01:14:54;97666.66;;;10.77;77.82
32251;BME280;41295;48.518;9.206;2023-01-05T01:16:56;97668.81;;;10.91;76.76
32251;BME280;41295;48.518;9.206;2023-01-05T01:18:59;97672.53;;;10.84;77.75
32251;BME280;41295;48.518;9.206;2023-01-05T01:21:06;97670.09;;;10.78;77.58
32251;BME280;41295;48.518;9.206;2023-01-05T01:23:11;97665.56;;;10.83;77.35
32251;BME280;41295;48.518;9.206;2023-01-05T01:25:13;97664.94;;;10.76;77.95
32251;BME280;41295;48.518;9.206;2023-01-05T01:27:16;97662.75;;;10.62;78.69
32251;BME280;41295;48.518;9.206;2023-01-05T01:29:19;97666.66;;;10.77;78.05
32251;BME280;41295;48.518;9.206;2023-01-05T01:31:23;97667.44;;;10.79;77.96
32251;BME280;41295;48.518;9.206;2023-01-05T01:33:26;97670.25;;;10.73;78.25
32251;BME280;41295;48.518;9.206;2023-01-05T01:35:29;97665.75;;;10.78;78.29
32251;BME280;41295;48.518;9.206;2023-01-05T01:37:31;97657.31;;;10.70;78.69
32251;BME280;41295;48.518;9.206;2023-01-05T01:39:35;97665.91;;;10.72;78.66
32251;BME280;41295;48.518;9.206;2023-01-05T01:41:38;97659.97;;;10.68;78.37
32251;BME280;41295;48.518;9.206;2023-01-05T01:43:46;97673.66;;;10.75;78.19
32251;BME280;41295;48.518;9.206;2023-01-05T01:45:49;97668.78;;;10.64;78.75
32251;BME280;41295;48.518;9.206;2023-01-05T01:47:54;97678.22;;;10.68;78.92
32251;BME280;41295;48.518;9.206;2023-01-05T01:50:00;97674.56;;;10.74;78.38
32251;BME280;41295;48.518;9.206;2023-01-05T01:52:04;97662.44;;;10.73;78.22
32251;BME280;41295;48.518;9.206;2023-01-05T01:54:09;97659.53;;;10.81;78.42
32251;BME280;41295;48.518;9.206;2023-01-05T01:56:16;97658.78;;;10.79;78.41
32251;BME280;41295;48.518;9.206;2023-01-05T01:58:23;97665.41;;;10.61;78.87
32251;BME280;41295;48.518;9.206;2023-01-05T02:00:27;97654.66;;;10.72;78.81
32251;BME280;41295;48.518;9.206;2023-01-05T02:02:30;97644.88;;;10.78;78.42
32251;BME280;41295;48.518;9.206;2023-01-05T02:04:33;97637.28;;;10.70;79.04
32251;BME280;41295;48.518;9.206;2023-01-05T02:06:38;97652.94;;;10.70;78.78
32251;BME280;41295;48.518;9.206;2023-01-05T02:08:40;97632.63;;;10.80;78.61
32251;BME280;41295;48.518;9.206;2023-01-05T02:10:56;97617.22;;;10.73;78.65
32251;BME280;41295;48.518;9.206;2023-01-05T02:13:11;97615.59;;;10.70;79.11
32251;BME280;41295;48.518;9.206;2023-01-05T02:15:23;97617.03;;;10.79;nan
32251;BME280;41295;48.518;9.206;2023-01-05T02:17:38;97605.91;;;10.74;78.97
32251;BME280;41295;48.518;9.206;2023-01-05T02:20:22;97616.19;;;10.78;79.29
32251;BME280;41295;48.518;9.206;2023-01-05T02:22:56;97609.09;;;10.82;79.16
32251;BME280;41295;48.518;9.206;2023-01-05T02:25:34;97625.63;;;10.81;78.94
32251;BME280;41295;48.518;9.206;2023-01-05T02:27:47;97606.31;;;10.87;79.10
32251;BME280;41295;48.518;9.206;2023-01-05T02:30:08;97612.81;;;10.75;78.78
32251;BME280;41295;48.518;9.206;2023-01-05T02:32:20;97605.84;;;10.75;78.97
32251;BME280;41295;48.518;9.206;2023-01-05T02:34:30;97619.88;;;10.71;79.57
32251;BME280;41295;48.518;9.206;2023-01-05T02:36:41;97620.69;;;10.73;79.50
32251;BME280;41295;48.518;9.206;2023-01-05T02:38:54;97609.44;;;10.71;79.56
32251;BME280;41295;48.518;9.206;2023-01-05T02:41:05;97613.06;;;10.67;80.00
32251;BME280;41295;48.518;9.206;2023-01-05T02:43:12;97605.69;;;10.53;80.84
32251;BME280;41295;48.518;9.206;2023-01-05T02:45:16;97611.00;;;10.77;79.38
32251;BME280;41295;48.518;9.206;2023-01-05T02:47:37;97616.13;;;10.80;79.31
32251;BME280;41295;48.518;9.206;2023-01-05T02:49:40;97615.38;;;10.76;79.11
32251;BME280;41295;48.518;9.206;2023-01-05T02:51:47;97618.69;;;10.81;79.02
32251;BME280;41295;48.518;9.206;2023-01-05T02:53:56;97617.09;;;10.77;79.16
32251;BME280;41295;48.518;9.206;2023-01-05T02:56:06;97604.75;;;10.82;78.89
32251;BME280;41295;48.518;9.206;2023-01-05T02:58:15;97615.19;;;10.82;78.70
32251;BME280;41295;48.518;9.206;2023-01-05T03:00:21;97607.50;;;10.78;79.01
32251;BME280;41295;48.518;9.206;2023-01-05T03:02:28;97605.00;;;10.75;79.11
32251;BME280;41295;48.518;9.206;2023-01-05T03:04:37;97605.34;;;10.64;79.75
32251;BME280;41295;48.518;9.206;2023-01-05T03:06:45;97591.91;;;10.76;78.96
32251;BME280;41295;48.518;9.206;2023-01-05T03:08:51;97600.28;;;10.86;78.36
32251;BME280;41295;48.518;9.206;2023-01-05T03:10:59;97592.28;;;10.91;78.32
32251;BME280;41295;48.518;9.206;2023-01-05T03:13:30;97595.25;;;10.80;78.97
32251;BME280;41295;48.518;9.206;2023-01-05T03:15:44;97582.16;;;10.81;78.85
32251;BME280;41295;48.518;9.206;2023-01-05T03:17:49;97582.91;;;10.85;78.67
32251;BME280;41295;48.518;9.206;2023-01-05T03:19:55;97598.44;;;10.88;78.69
32251;BME280;41295;48.518;9.206;2023-01-05T03:22:05;97603.94;;;10.80;78.42
32251;BME280;41295;48.518;9.206;2023-01-05T03:24:27;97605.84;;;10.75;79.16
32251;BME280;41295;48.518;9.206;2023-01-05T03:26:50;97614.84;;;10.66;79.39
32251;BME280;41295;48.518;9.206;2023-01-05T03:29:10;97621.91;;;10.63;79.14
32251;BME280;41295;48.518;9.206;2023-01-05T03:31:34;97618.03;;;10.75;78.45
32251;BME280;41295;48.518;9.206;2023-01-05T03:34:00;97614.66;;;10.71;79.08
32251;BME280;41295;48.518;9.206;2023-01-05T03:36:27;97616.41;;;10.70;78.85
32251;BME280;41295;48.518;9.206;2023-01-05T03:38:34;97613.91;;;10.67;78.86
32251;BME280;41295;48.518;9.206;2023-01-05T03:40:40;97610.72;;;10.86;78.16
32251;BME280;41295;48.518;9.206;2023-01-05T03:42:44;97614.56;;;10.74;78.54
32251;BME280;41295;48.518;9.206;2023-01-05T03:44:48;97614.66;;;10.98;77.27
32251;BME280;41295;48.518;9.206;2023-01-05T03:46:51;97609.25;;;10.77;77.94
32251;BME280;41295;48.518;9.206;2023-01-05T03:48:53;97603.84;;;10.83;77.78
32251;BME280;41295;48.518;9.206;2023-01-05T03:50:56;97611.66;;;10.83;77.53
32251;BME280;41295;48.518;9.206;2023-01-05T03:53:00;97612.81;;;10.75;78.16
32251;BME280;41295;48.518;9.206;2023-01-05T03:55:03;97607.19;;;10.87;77.35
32251;BME280;41295;48.518;9.206;2023-01-05T03:57:06;97612.09;;;10.97;77.02
32251;BME280;41295;48.518;9.206;2023-01-05T03:59:09;97616.88;;;10.83;77.10
32251;BME280;41295;48.518;9.206;2023-01-05T04:01:11;97614.66;;;10.98;76.59
32251;BME280;41295;48.518;9.206;2023-01-05T04:03:14;97606.66;;;11.03;76.22
32251;BME280;41295;48.518;9.206;2023-01-05T04:05:17;97608.09;;;10.86;76.93
32251;BME280;41295;48.518;9.206;2023-01-05T04:07:19;97601.28;;;10.82;77.49
32251;BME280;41295;48.518;9.206;2023-01-05T04:09:23;97597.00;;;10.79;77.66
32251;BME280;41295;48.518;9.206;2023-01-05T04:11:26;97605.44;;;10.88;76.91
32251;BME280;41295;48.518;9.206;2023-01-05T04:13:28;97611.25;;;10.96;76.82
32251;BME280;41295;48.518;9.206;2023-01-05T04:15:31;97602.72;;;10.91;76.78
32251;BME280;41295;48.518;9.206;2023-01-05T04:17:34;97602.84;;;10.88;77.01
32251;BME280;41295;48.518;9.206;2023-01-05T04:19:36;97606.09;;;10.94;76.44
32251;BME280;41295;48.518;9.206;2023-01-05T04:21:39;97609.00;;;10.85;76.72
32251;BME280;41295;48.518;9.206;2023-01-05T04:23:41;97600.81;;;10.96;76.28
32251;BME280;41295;48.518;9.206;2023-01-05T04:25:46;97607.41;;;11.06;75.59
32251;BME280;41295;48.518;9.206;2023-01-05T04:27:49;97599.81;;;11.00;75.74
32251;BME280;41295;48.518;9.206;2023-01-05T04:29:51;97599.88;;;10.99;76.33
32251;BME280;41295;48.518;9.206;2023-01-05T04:31:54;97594.78;;;10.94;76.13
32251;BME280;41295;48.518;9.206;2023-01-05T04:33:57;97591.19;;;10.98;76.00
32251;BME280;41295;48.518;9.206;2023-01-05T04:35:59;97599.75;;;11.02;75.57
32251;BME280;41295;48.518;9.206;2023-01-05T04:38:02;97599.53;;;11.08;75.43
32251;BME280;41295;48.518;9.206;2023-01-05T04:40:05;97604.16;;;11.00;75.57
32251;BME280;41295;48.518;9.206;2023-01-05T04:42:09;97598.09;;;10.99;75.50
32251;BME280;41295;48.518;9.206;2023-01-05T04:44:12;97600.81;;;10.96;75.71
32251;BME280;41295;48.518;9.206;2023-01-05T04:46:14;97589.78;;;11.13;75.00
32251;BME280;41295;48.518;9.206;2023-01-05T04:48:17;97591.75;;;11.06;75.20
32251;BME280;41295;48.518;9.206;2023-01-05T04:50:20;97592.88;;;10.99;75.77
32251;BME280;41295;48.518;9.206;2023-01-05T04:52:22;97586.47;;;11.08;75.28
32251;BME280;41295;48.518;9.206;2023-01-05T04:54:25;97610.97;;;11.29;74.30
32251;BME280;41295;48.518;9.206;2023-01-05T04:56:28;97598.03;;;11.26;74.43
32251;BME280;41295;48.518;9.206;2023-01-05T04:58:32;97600.91;;;11.18;74.44
32251;BME280;41295;48.518;9.206;2023-01-05T05:00:34;97596.00;;;11.35;74.09
32251;BME280;41295;48.518;9.206;2023-01-05T05:02:37;97589.41;;;11.24;74.16
32251;BME280;41295;48.518;9.206;2023-01-05T05:04:40;97594.91;;;11.16;74.42
32251;BME280;41295;48.518;9.206;2023-01-05T05:06:42;97601.75;;;11.19;74.54
32251;BME280;41295;48.518;9.206;2023-01-05T05:08:45;97602.13;;;11.34;74.33
32251;BME280;41295;48.518;9.206;2023-01-05T05:10:48;97609.34;;;11.27;73.90
32251;BME280;41295;48.518;9.206;2023-01-05T05:12:51;97604.81;;;11.32;74.31
32251;BME280;41295;48.518;9.206;2023-01-05T05:14:55;97606.56;;;11.31;74.31
32251;BME280;41295;48.518;9.206;2023-01-05T05:16:57;97605.06;;;11.24;74.73
32251;BME280;41295;48.518;9.206;2023-01-05T05:19:00;97608.41;;;11.28;74.33
32251;BME280;41295;48.518;9.206;2023-01-05T05:21:03;97610.34;;;11.23;74.57
32251;BME280;41295;48.518;9.206;2023-01-05T05:23:05;97602.00;;;11.13;75.10
32251;BME280;41295;48.518;9.206;2023-01-05T05:25:08;97606.59;;;11.04;75.22
32251;BME280;41295;48.518;9.206;2023-01-05T05:27:11;97610.06;;;11.05;75.15
32251;BME280;41295;48.518;9.206;2023-01-05T05:29:13;97607.53;;;11.03;75.82
32251;BME280;41295;48.518;9.206;2023-01-05T05:31:17;97618.81;;;11.04;75.46
32251;BME280;41295;48.518;9.206;2023-01-05T05:33:20;97620.03;;;11.19;74.86
32251;BME280;41295;48.518;9.206;2023-01-05T05:35:23;97619.84;;;11.25;74.85
32251;BME280;41295;48.518;9.206;2023-01-05T05:37:25;97624.50;;;11.41;74.10
32251;BME280;41295;48.518;9.206;2023-01-05T05:39:28;97629.38;;;11.26;74.46
32251;BME280;41295;48.518;9.206;2023-01-05T05:41:30;97629.38;;;11.26;74.71
32251;BME280;41295;48.518;9.206;2023-01-05T05:43:33;97643.78;;;11.37;74.41
32251;BME280;41295;48.518;9.206;2023-01-05T05:45:35;97627.75;;;11.22;74.77
32251;BME280;41295;48.518;9.206;2023-01-05T05:47:39;97647.75;;;11.23;75.21
32251;BME280;41295;48.518;9.206;2023-01-05T05:49:42;97659.00;;;11.25;75.04
32251;BME280;41295;48.518;9.206;2023-01-05T05:51:44;97645.19;;;11.22;75.03
32251;BME280;41295;48.518;9.206;2023-01-05T05:53:47;97654.25;;;11.37;74.37
32251;BME280;41295;48.518;9.206;2023-01-05T05:55:50;97667.41;;;11.34;74.50
32251;BME280;41295;48.518;9.206;2023-01-05T05:57:52;97659.19;;;11.19;74.88
32251;BME280;41295;48.518;9.206;2023-01-05T05:59:55;97663.06;;;11.07;75.49
32251;BME280;41295;48.518;9.206;2023-01-05T06:01:58;97664.56;;;11.14;75.27
32251;BME280;41295;48.518;9.206;2023-01-05T06:04:02;97669.03;;;11.11;75.56
32251;BME280;41295;48.518;9.206;2023-01-05T06:06:06;97672.53;;;11.11;75.52
32251;BME280;41295;48.518;9.206;2023-01-05T06:08:08;97663.53;;;11.18;75.18
32251;BME280;41295;48.518;9.206;2023-01-05T06:10:11;97673.53;;;11.33;74.88
32251;BME280;41295;48.518;9.206;2023-01-05T06:12:13;97681.03;;;11.16;75.08
32251;BME280;41295;48.518;9.206;2023-01-05T06:14:16;97681.03;;;11.16;75.33
32251;BME280;41295;48.518;9.206;2023-01-05T06:16:19;97679.88;;;11.25;74.86
32251;BME280;41295;48.518;9.206;2023-01-05T06:18:22;97679.88;;;11.25;75.01
32251;BME280;41295;48.518;9.206;2023-01-05T06:20:26;97673.56;;;11.31;74.98
32251;BME280;41295;48.518;9.206;2023-01-05T06:22:28;97684.41;;;11.20;75.34
32251;BME280;41295;48.518;9.206;2023-01-05T06:24:31;97687.22;;;11.14;75.20
32251;BME280;41295;48.518;9.206;2023-01-05T06:26:33;97684.00;;;11.31;75.02
32251;BME280;41295;48.518;9.206;2023-01-05T06:28:36;97692.94;;;11.25;75.68
32251;BME280;41295;48.518;9.206;2023-01-05T06:30:39;97695.53;;;11.25;76.05
32251;BME280;41295;48.518;9.206;2023-01-05T06:32:41;97698.16;;;11.25;76.46
32251;BME280;41295;48.518;9.206;2023-01-05T06:34:44;97696.94;;;11.09;77.37
32251;BME280;41295;48.518;9.206;2023-01-05T06:36:48;97708.19;;;11.11;78.08
32251;BME280;41295;48.518;9.206;2023-01-05T06:38:50;97695.69;;;10.93;78.84
32251;BME280;41295;48.518;9.206;2023-01-05T06:40:53;97701.09;;;10.87;80.11
32251;BME280;41295;48.518;9.206;2023-01-05T06:42:56;97705.56;;;10.83;80.29
32251;BME280;41295;48.518;9.206;2023-01-05T06:44:58;97699.25;;;10.91;80.12
32251;BME280;41295;48.518;9.206;2023-01-05T06:47:01;97700.47;;;10.80;81.00
32251;BME280;41295;48.518;9.206;2023-01-05T06:49:03;97691.00;;;10.76;80.83
32251;BME280;41295;48.518;9.206;2023-01-05T06:51:06;97702.03;;;10.86;80.93
32251;BME280;41295;48.518;9.206;2023-01-05T06:53:10;97706.16;;;10.92;79.94
32251;BME280;41295;48.518;9.206;2023-01-05T06:55:12;97707.25;;;10.85;79.55
32251;BME280;41295;48.518;9.206;2023-01-05T06:57:15;97716.31;;;11.01;79.37
32251;BME280;41295;48.518;9.206;2023-01-05T06:59:18;97719.25;;;10.90;79.47
32251;BME280;41295;48.518;9.206;2023-01-05T07:01:20;97716.75;;;10.87;79.36
32251;BME280;41295;48.518;9.206;2023-01-05T07:03:23;97718.38;;;10.91;79.49
32251;BME280;41295;48.518;9.206;2023-01-05T07:05:26;97714.22;;;10.86;80.25
32251;BME280;41295;48.518;9.206;2023-01-05T07:07:29;97727.44;;;10.79;80.19
32251;BME280;41295;48.518;9.206;2023-01-05T07:09:33;97726.50;;;10.82;79.80
32251;BME280;41295;48.518;9.206;2023-01-05T07:11:35;97728.66;;;10.96;78.47
32251;BME280;41295;48.518;9.206;2023-01-05T07:13:38;97727.84;;;10.94;78.52
32251;BME280;41295;48.518;9.206;2023-01-05T07:15:40;97728.56;;;10.99;78.84
32251;BME280;41295;48.518;9.206;2023-01-05T07:17:43;97738.94;;;11.01;78.73
32251;BME280;41295;48.518;9.206;2023-01-05T07:19:45;97739.03;;;10.98;78.73
32251;BME280;41295;48.518;9.206;2023-01-05T07:21:48;97747.84;;;10.95;79.13
32251;BME280;41295;48.518;9.206;2023-01-05T07:23:57;97751.59;;;10.85;79.73
32251;BME280;41295;48.518;9.206;2023-01-05T07:26:01;97756.16;;;10.78;79.89
32251;BME280;41295;48.518;9.206;2023-01-05T07:28:03;97759.63;;;10.78;80.29
32251;BME280;41295;48.518;9.206;2023-01-05T07:30:07;97762.53;;;10.69;80.97
32251;BME280;41295;48.518;9.206;2023-01-05T07:32:10;97764.00;;;10.78;80.70
32251;BME280;41295;48.518;9.206;2023-01-05T07:34:12;97772.06;;;10.70;81.57
32251;BME280;41295;48.518;9.206;2023-01-05T07:36:15;97774.72;;;10.68;81.66
32251;BME280;41295;48.518;9.206;2023-01-05T07:38:18;97781.03;;;10.59;82.06
32251;BME280;41295;48.518;9.206;2023-01-05T07:40:20;97779.34;;;10.58;82.41
32251;BME280;41295;48.518;9.206;2023-01-05T07:42:24;97786.25;;;10.59;82.49
32251;BME280;41295;48.518;9.206;2023-01-05T07:44:27;97783.84;;;10.53;82.78
32251;BME280;41295;48.518;9.206;2023-01-05T07:46:29;97783.81;;;10.55;83.22
32251;BME280;41295;48.518;9.206;2023-01-05T07:48:32;97788.88;;;10.59;82.93
32251;BME280;41295;48.518;9.206;2023-01-05T07:50:34;97791.53;;;10.58;83.08
32251;BME280;41295;48.518;9.206;2023-01-05T07:52:37;97796.06;;;10.51;83.62
32251;BME280;41295;48.518;9.206;2023-01-05T07:54:40;97800.47;;;10.79;82.28
32251;BME280;41295;48.518;9.206;2023-01-05T07:56:42;97803.22;;;10.75;82.76
32251;BME280;41295;48.518;9.206;2023-01-05T07:58:46;97819.28;;;10.61;83.41
32251;BME280;41295;48.518;9.206;2023-01-05T08:00:49;97811.66;;;10.53;83.96
32251;BME280;41295;48.518;9.206;2023-01-05T08:02:52;97815.28;;;10.49;84.07
32251;BME280;41295;48.518;9.206;2023-01-05T08:04:54;97807.44;;;10.47;84.51
32251;BME280;41295;48.518;9.206;2023-01-05T08:06:57;97808.13;;;10.55;83.97
32251;BME280;41295;48.518;9.206;2023-01-05T08:08:59;97811.47;;;10.61;84.13
32251;BME280;41295;48.518;9.206;2023-01-05T08:11:22;97811.34;;;10.64;83.79
32251;BME280;41295;48.518;9.206;2023-01-05T08:13:24;97803.38;;;10.70;83.62
32251;BME280;41295;48.518;9.206;2023-01-05T08:15:45;97810.34;;;10.69;83.53
32251;BME280;41295;48.518;9.206;2023-01-05T08:17:52;97811.81;;;10.78;83.47
32251;BME280;41295;48.518;9.206;2023-01-05T08:19:54;97807.47;;;10.79;82.71
32251;BME280;41295;48.518;9.206;2023-01-05T08:21:57;97811.00;;;10.76;82.66
32251;BME280;41295;48.518;9.206;2023-01-05T08:23:59;97814.63;;;10.70;82.28
32251;BME280;41295;48.518;9.206;2023-01-05T08:26:03;97815.97;;;10.55;82.75
32251;BME280;41295;48.518;9.206;2023-01-05T08:28:06;97830.69;;;10.56;82.60
32251;BME280;41295;48.518;9.206;2023-01-05T08:30:10;97827.25;;;10.56;82.83
32251;BME280;41295;48.518;9.206;2023-01-05T08:32:14;97829.63;;;10.64;82.56
32251;BME280;41295;48.518;9.206;2023-01-05T08:34:17;97830.06;;;10.46;83.05
32251;BME280;41295;48.518;9.206;2023-01-05T08:36:19;97837.03;;;10.46;83.18
32251;BME280;41295;48.518;9.206;2023-01-05T08:38:22;97836.22;;;10.44;84.10
32251;BME280;41295;48.518;9.206;2023-01-05T08:40:25;97834.53;;;10.43;83.69
32251;BME280;41295;48.518;9.206;2023-01-05T08:42:27;97832.09;;;10.68;82.08
32251;BME280;41295;48.518;9.206;2023-01-05T08:44:30;97821.13;;;10.57;82.44
32251;BME280;41295;48.518;9.206;2023-01-05T08:46:34;97826.28;;;10.58;82.87
32251;BME280;41295;48.518;9.206;2023-01-05T08:48:38;97822.19;;;10.80;81.80
32251;BME280;41295;48.518;9.206;2023-01-05T08:50:41;97818.91;;;10.73;82.11
32251;BME280;41295;48.518;9.206;2023-01-05T08:52:43;97819.13;;;10.65;81.53
32251;BME280;41295;48.518;9.206;2023-01-05T08:54:46;97833.09;;;10.64;82.27
32251;BME280;41295;48.518;9.206;2023-01-05T08:56:48;97832.31;;;10.61;82.91
32251;BME280;41295;48.518;9.206;2023-01-05T08:58:52;97829.88;;;10.54;83.04
32251;BME280;41295;48.518;9.206;2023-01-05T09:00:57;97827.97;;;10.59;83.60
32251;BME280;41295;48.518;9.206;2023-01-05T09:03:00;97833.19;;;10.61;82.99
32251;BME280;41295;48.518;9.206;2023-01-05T09:05:05;97840.31;;;10.54;83.79
32251;BME280;41295;48.518;9.206;2023-01-05T09:07:08;97834.22;;;10.55;83.80
32251;BME280;41295;48.518;9.206;2023-01-05T09:09:11;97838.50;;;10.56;84.08
32251;BME280;41295;48.518;9.206;2023-01-05T09:11:15;97835.84;;;10.58;84.30
32251;BME280;41295;48.518;9.206;2023-01-05T09:13:18;97838.31;;;10.64;84.15
32251;BME280;41295;48.518;9.206;2023-01-05T09:15:21;97845.16;;;10.67;83.98
32251;BME280;41295;48.518;9.206;2023-01-05T09:17:24;97845.09;;;10.70;83.67
32251;BME280;41295;48.518;9.206;2023-01-05T09:19:26;97844.13;;;10.73;83.55
32251;BME280;41295;48.518;9.206;2023-01-05T09:21:30;97853.72;;;10.72;83.73
32251;BME280;41295;48.518;9.206;2023-01-05T09:23:34;97852.72;;;10.76;82.84
32251;BME280;41295;48.518;9.206;2023-01-05T09:25:37;97856.22;;;10.77;83.13
32251;BME280;41295;48.518;9.206;2023-01-05T09:27:39;97857.06;;;10.77;83.54
32251;BME280;41295;48.518;9.206;2023-01-05T09:29:43;97862.25;;;10.79;83.59
32251;BME280;41295;48.518;9.206;2023-01-05T09:31:46;97865.63;;;10.81;83.46
32251;BME280;41295;48.518;9.206;2023-01-05T09:33:48;97870.06;;;10.79;83.24
32251;BME280;41295;48.518;9.206;2023-01-05T09:35:54;97874.22;;;10.85;83.22
32251;BME280;41295;48.518;9.206;2023-01-05T09:37:58;97875.94;;;10.86;82.78
32251;BME280;41295;48.518;9.206;2023-01-05T09:40:01;97882.16;;;10.81;82.65
32251;BME280;41295;48.518;9.206;2023-01-05T09:42:06;97878.66;;;10.82;82.58
32251;BME280;41295;48.518;9.206;2023-01-05T09:44:20;97884.72;;;10.83;82.46
32251;BME280;41295;48.518;9.206;2023-01-05T09:46:31;97898.72;;;10.80;82.96
32251;BME280;41295;48.518;9.206;2023-01-05T09:48:38;97899.53;;;10.82;82.85
32251;BME280;41295;48.518;9.206;2023-01-05T09:50:42;97901.31;;;10.80;82.40
32251;BME280;41295;48.518;9.206;2023-01-05T09:52:46;97908.34;;;10.78;82.98
32251;BME280;41295;48.518;9.206;2023-01-05T09:54:50;97902.19;;;10.79;82.72
32251;BME280;41295;48.518;9.206;2023-01-05T09:56:54;97898.63;;;10.83;82.69
32251;BME280;41295;48.518;9.206;2023-01-05T09:59:18;97901.31;;;10.80;82.07
32251;BME280;41295;48.518;9.206;2023-01-05T10:01:24;97894.03;;;10.92;81.33
32251;BME280;41295;48.518;9.206;2023-01-05T10:03:27;97895.06;;;10.86;81.65
32251;BME280;41295;48.518;9.206;2023-01-05T10:05:52;97901.19;;;10.85;81.44
32251;BME280;41295;48.518;9.206;2023-01-05T10:07:58;97887.19;;;10.88;81.20
32251;BME280;41295;48.518;9.206;2023-01-05T10:10:11;97892.38;;;10.89;81.57
32251;BME280;41295;48.518;9.206;2023-01-05T10:12:19;97894.94;;;10.91;81.38
32251;BME280;41295;48.518;9.206;2023-01-05T10:14:44;97887.97;;;10.91;81.30
32251;BME280;41295;48.518;9.206;2023-01-05T10:16:48;97895.66;;;10.96;81.21
32251;BME280;41295;48.518;9.206;2023-01-05T10:19:12;97890.38;;;10.98;81.26
32251;BME280;41295;48.518;9.206;2023-01-05T10:21:22;97882.34;;;11.05;80.42
32251;BME280;41295;48.518;9.206;2023-01-05T10:25:59;97888.38;;;11.07;80.51
32251;BME280;41295;48.518;9.206;2023-01-05T10:28:20;97877.06;;;11.07;80.03
32251;BME280;41295;48.518;9.206;2023-01-05T10:30:42;97874.38;;;11.10;80.03
32251;BME280;41295;48.518;9.206;2023-01-05T10:32:57;97881.97;;;11.18;79.94
32251;BME280;41295;48.518;9.206;2023-01-05T10:35:22;97887.28;;;11.15;79.72
32251;BME280;41295;48.518;9.206;2023-01-05T10:38:01;97890.78;;;11.14;79.59
32251;BME280;41295;48.518;9.206;2023-01-05T10:40:14;97890.72;;;11.15;79.72
32251;BME280;41295;48.518;9.206;2023-01-05T10:42:30;97883.50;;;11.25;79.29
32251;BME280;41295;48.518;9.206;2023-01-05T10:44:51;97901.00;;;11.22;77.46
32251;BME280;41295;48.518;9.206;2023-01-05T10:46:56;97892.16;;;11.26;77.34
32251;BME280;41295;48.518;9.206;2023-01-05T10:48:59;97889.38;;;11.32;76.15
32251;BME280;41295;48.518;9.206;2023-01-05T10:51:03;97892.88;;;11.31;73.65
32251;BME280;41295;48.518;9.206;2023-01-05T10:53:09;97886.06;;;11.27;70.68
32251;BME280;41295;48.518;9.206;2023-01-05T10:55:15;97887.56;;;11.34;70.32
32251;BME280;41295;48.518;9.206;2023-01-05T10:57:35;97881.09;;;11.46;68.77
32251;BME280;41295;48.518;9.206;2023-01-05T10:59:53;97899.44;;;11.45;68.25
32251;BME280;41295;48.518;9.206;2023-01-05T11:01:56;97900.16;;;11.50;67.45
32251;BME280;41295;48.518;9.206;2023-01-05T11:04:04;97895.25;;;11.39;68.38
32251;BME280;41295;48.518;9.206;2023-01-05T11:06:31;97891.03;;;11.35;69.13
32251;BME280;41295;48.518;9.206;2023-01-05T11:08:35;97895.16;;;11.42;68.23
32251;BME280;41295;48.518;9.206;2023-01-05T11:10:40;97891.72;;;11.40;67.95